createdAt,value
2018-12-14T00:00:29.909Z,22.17
2018-12-14T00:03:13.069Z,20.43
2018-12-14T00:05:57.380Z,21.27
2018-12-14T00:08:39.386Z,21.17
2018-12-14T00:11:21.195Z,21.25
2018-12-14T00:14:04.389Z,21.02
2018-12-14T00:16:46.403Z,19.82
2018-12-14T00:19:28.351Z,21.25
2018-12-14T00:22:10.311Z,19.80
2018-12-14T00:24:52.347Z,19.90
2018-12-14T00:27:33.803Z,19.52
2018-12-14T00:30:15.631Z,21.77
2018-12-14T00:32:57.578Z,20.75
2018-12-14T00:35:39.610Z,19.37
2018-12-14T00:38:21.128Z,21.10
2018-12-14T00:41:02.980Z,19.80
2018-12-14T00:43:44.369Z,20.75
2018-12-14T00:46:25.718Z,21.07
2018-12-14T00:49:07.541Z,19.82
2018-12-14T00:51:49.159Z,20.08
2018-12-14T00:54:30.292Z,20.45
2018-12-14T00:57:11.862Z,20.32
2018-12-14T00:59:54.063Z,20.35
2018-12-14T01:02:35.287Z,19.77
2018-12-14T01:05:16.727Z,20.45
2018-12-14T01:07:58.343Z,21.17
2018-12-14T01:10:40.537Z,20.60
2018-12-14T01:13:22.925Z,21.27
2018-12-14T01:16:04.633Z,21.77
2018-12-14T01:18:45.882Z,19.98
2018-12-14T01:21:28.492Z,20.92
2018-12-14T01:24:10.148Z,20.88
2018-12-14T01:26:51.342Z,20.32
2018-12-14T01:29:32.634Z,22.52
2018-12-14T01:32:14.375Z,20.90
2018-12-14T01:34:55.736Z,20.53
2018-12-14T01:37:37.968Z,21.95
2018-12-14T01:40:19.652Z,21.70
2018-12-14T01:43:01.141Z,20.57
2018-12-14T01:45:43.200Z,20.82
2018-12-14T01:48:25.961Z,19.95
2018-12-14T01:51:07.149Z,20.40
2018-12-14T01:53:48.528Z,20.50
2018-12-14T01:56:29.737Z,21.00
2018-12-14T01:59:11.489Z,20.68
2018-12-14T02:01:53.359Z,19.60
2018-12-14T02:04:34.960Z,21.50
2018-12-14T02:07:16.406Z,21.62
2018-12-14T02:09:57.644Z,19.90
2018-12-14T02:12:38.958Z,21.43
2018-12-14T02:15:20.860Z,19.92
2018-12-14T02:18:02.407Z,20.97
2018-12-14T02:20:44.121Z,21.07
2018-12-14T02:23:25.792Z,19.63
2018-12-14T02:26:07.760Z,20.07
2018-12-14T02:28:50.141Z,20.77
2018-12-14T02:31:31.588Z,19.87
2018-12-14T02:34:12.859Z,19.80
2018-12-14T02:36:54.410Z,20.70
2018-12-14T02:39:36.150Z,19.73
2018-12-14T02:42:19.346Z,20.02
2018-12-14T02:45:01.728Z,19.57
2018-12-14T02:47:43.137Z,21.03
2018-12-14T02:50:25.331Z,19.77
2018-12-14T02:53:07.089Z,19.98
2018-12-14T02:55:48.860Z,21.07
2018-12-14T02:58:31.572Z,19.80
2018-12-14T03:01:13.535Z,19.97
2018-12-14T03:03:55.186Z,21.27
2018-12-14T03:06:36.565Z,19.53
2018-12-14T03:09:17.767Z,20.07
2018-12-14T03:11:58.967Z,21.07
2018-12-14T03:14:41.933Z,19.00
2018-12-14T03:17:24.401Z,19.97
2018-12-14T03:20:08.438Z,20.60
2018-12-14T03:22:50.310Z,21.07
2018-12-14T03:25:33.015Z,20.15
2018-12-14T03:28:15.015Z,21.13
2018-12-14T03:30:57.253Z,20.60
2018-12-14T03:33:38.976Z,19.98
2018-12-14T03:36:21.277Z,20.72
2018-12-14T03:39:04.482Z,20.05
2018-12-14T03:41:47.832Z,19.37
2018-12-14T03:44:29.148Z,19.43
2018-12-14T03:47:12.754Z,20.32
2018-12-14T03:49:54.721Z,19.92
2018-12-14T03:52:36.869Z,21.85
2018-12-14T03:55:20.199Z,21.35
2018-12-14T03:58:02.744Z,20.60
2018-12-14T04:00:45.171Z,20.30
2018-12-14T04:03:26.699Z,21.30
2018-12-14T04:06:08.094Z,20.97
2018-12-14T04:08:49.632Z,20.00
2018-12-14T04:11:30.912Z,20.93
2018-12-14T04:14:12.168Z,20.10
2018-12-14T04:16:53.620Z,20.45
2018-12-14T04:19:35.439Z,20.20
2018-12-14T04:22:17.084Z,20.77
2018-12-14T04:24:58.779Z,19.85
2018-12-14T04:27:41.093Z,20.65
2018-12-14T04:30:23.236Z,21.10
2018-12-14T04:33:05.956Z,19.77
2018-12-14T04:35:47.702Z,20.73
2018-12-14T04:38:30.625Z,20.62
2018-12-14T04:41:12.604Z,20.97
2018-12-14T04:43:54.440Z,21.03
2018-12-14T04:46:36.382Z,21.70
2018-12-14T04:49:18.697Z,22.80
2018-12-14T04:52:02.492Z,20.65
2018-12-14T04:54:44.260Z,20.43
2018-12-14T04:57:26.354Z,20.97
2018-12-14T05:00:09.361Z,22.62
2018-12-14T05:02:51.684Z,21.90
2018-12-14T05:05:33.751Z,20.80
2018-12-14T05:08:16.268Z,21.10
2018-12-14T05:10:58.898Z,21.05
2018-12-14T05:13:40.859Z,21.50
2018-12-14T05:16:22.481Z,20.87
2018-12-14T05:19:05.045Z,20.90
2018-12-14T05:21:47.168Z,21.77
2018-12-14T05:24:28.803Z,22.93
2018-12-14T05:27:10.777Z,21.30
2018-12-14T05:29:53.568Z,24.02
2018-12-14T05:32:37.168Z,24.82
2018-12-14T05:35:19.817Z,23.30
2018-12-14T05:38:01.709Z,23.18
2018-12-14T05:40:46.194Z,24.07
2018-12-14T05:43:27.782Z,24.43
2018-12-14T05:46:10.313Z,23.27
2018-12-14T05:48:53.467Z,22.42
2018-12-14T05:51:36.139Z,20.72
2018-12-14T05:54:18.056Z,21.97
2018-12-14T05:56:59.927Z,22.13
2018-12-14T05:59:42.342Z,21.40
2018-12-14T06:02:24.073Z,21.48
2018-12-14T06:05:06.503Z,21.75
2018-12-14T06:07:47.615Z,21.83
2018-12-14T06:10:29.392Z,22.87
2018-12-14T06:13:11.039Z,22.42
2018-12-14T06:15:53.404Z,22.23
2018-12-14T06:18:35.321Z,21.68
2018-12-14T06:21:17.025Z,24.00
2018-12-14T06:23:59.868Z,22.73
2018-12-14T06:26:41.569Z,22.58
2018-12-14T06:29:23.060Z,22.32
2018-12-14T06:32:05.542Z,22.58
2018-12-14T06:34:47.081Z,22.13
2018-12-14T06:37:29.249Z,24.05
2018-12-14T06:40:12.185Z,21.25
2018-12-14T06:42:54.588Z,21.37
2018-12-14T06:45:36.241Z,22.73
2018-12-14T06:48:18.862Z,23.90
2018-12-14T06:51:01.415Z,21.33
2018-12-14T06:53:43.640Z,24.33
2018-12-14T06:56:24.999Z,24.05
2018-12-14T06:59:07.425Z,21.70
2018-12-14T07:01:49.154Z,23.83
2018-12-14T07:04:30.426Z,22.55
2018-12-14T07:07:12.486Z,21.90
2018-12-14T07:09:54.316Z,21.53
2018-12-14T07:12:37.034Z,21.73
2018-12-14T07:15:19.236Z,23.12
2018-12-14T07:18:00.633Z,22.87
2018-12-14T07:20:43.059Z,23.13
2018-12-14T07:23:24.723Z,24.23
2018-12-14T07:26:06.813Z,23.62
2018-12-14T07:28:48.312Z,22.27
2018-12-14T07:31:31.122Z,22.07
2018-12-14T07:34:13.229Z,22.22
2018-12-14T07:36:55.124Z,23.15
2018-12-14T07:39:36.855Z,22.67
2018-12-14T07:42:18.675Z,21.35
2018-12-14T07:45:00.515Z,25.35
2018-12-14T07:47:42.129Z,27.93
2018-12-14T07:50:24.273Z,22.00
2018-12-14T07:53:09.108Z,24.92
2018-12-14T07:55:50.007Z,22.73
2018-12-14T07:58:31.822Z,23.40
2018-12-14T08:01:13.934Z,21.45
2018-12-14T08:03:55.113Z,21.48
2018-12-14T08:06:36.407Z,22.67
2018-12-14T08:09:18.253Z,21.30
2018-12-14T08:11:59.489Z,20.37
2018-12-14T08:14:41.612Z,20.90
2018-12-14T08:17:22.994Z,20.70
2018-12-14T08:20:05.275Z,19.73
2018-12-14T08:22:46.654Z,17.37
2018-12-14T08:25:28.256Z,17.92
2018-12-14T08:28:09.749Z,18.85
2018-12-14T08:30:52.189Z,19.10
2018-12-14T08:33:33.574Z,17.80
2018-12-14T08:36:15.046Z,19.73
2018-12-14T08:38:56.516Z,17.50
2018-12-14T08:41:38.875Z,18.82
2018-12-14T08:44:21.567Z,19.42
2018-12-14T08:47:04.101Z,19.77
2018-12-14T08:49:46.338Z,18.25
2018-12-14T08:52:28.959Z,20.65
2018-12-14T08:55:10.843Z,20.37
2018-12-14T08:57:52.299Z,21.77
2018-12-14T09:00:34.433Z,21.65
2018-12-14T09:03:15.971Z,21.68
2018-12-14T09:05:57.681Z,19.75
2018-12-14T09:08:40.018Z,19.52
2018-12-14T09:11:21.163Z,20.25
2018-12-14T09:14:02.970Z,19.87
2018-12-14T09:16:44.548Z,19.55
2018-12-14T09:19:26.004Z,19.35
2018-12-14T09:22:08.043Z,18.17
2018-12-14T09:24:49.916Z,18.65
2018-12-14T09:27:34.139Z,18.52
2018-12-14T09:30:15.715Z,18.48
2018-12-14T09:32:57.670Z,19.82
2018-12-14T09:35:40.163Z,18.67
2018-12-14T09:38:21.815Z,18.12
2018-12-14T09:41:03.344Z,18.40
2018-12-14T09:43:44.945Z,18.65
2018-12-14T09:46:26.560Z,18.17
2018-12-14T09:49:09.256Z,19.23
2018-12-14T09:51:50.867Z,18.57
2018-12-14T09:54:33.011Z,19.05
2018-12-14T09:57:14.259Z,18.62
2018-12-14T09:59:55.485Z,18.50
2018-12-14T10:02:37.434Z,17.75
2018-12-14T10:05:19.671Z,17.42
2018-12-14T10:08:05.667Z,18.48
2018-12-14T10:10:47.726Z,18.50
2018-12-14T10:13:29.338Z,18.15
2018-12-14T10:16:12.316Z,18.00
2018-12-14T10:18:54.525Z,18.60
2018-12-14T10:21:36.935Z,16.40
2018-12-14T10:24:19.220Z,16.85
2018-12-14T10:27:07.425Z,18.48
2018-12-14T10:29:49.376Z,18.10
2018-12-14T10:32:31.664Z,17.32
2018-12-14T10:35:13.703Z,17.92
2018-12-14T10:37:56.564Z,17.48
2018-12-14T10:40:39.420Z,17.17
2018-12-14T10:43:21.725Z,16.67
2018-12-14T10:46:05.636Z,14.93
2018-12-14T10:48:47.078Z,15.70
2018-12-14T10:51:29.162Z,17.55
2018-12-14T10:54:11.878Z,16.30
2018-12-14T10:56:54.426Z,16.62
2018-12-14T10:59:36.237Z,16.37
2018-12-14T11:02:19.002Z,17.42
2018-12-14T11:05:00.685Z,16.80
2018-12-14T11:07:42.600Z,15.23
2018-12-14T11:10:25.259Z,17.37
2018-12-14T11:13:07.459Z,18.07
2018-12-14T11:15:49.895Z,17.52
2018-12-14T11:18:31.863Z,15.85
2018-12-14T11:21:13.867Z,17.05
2018-12-14T11:23:55.869Z,16.55
2018-12-14T11:26:38.106Z,15.40
2018-12-14T11:29:20.974Z,16.32
2018-12-14T11:32:02.912Z,17.05
2018-12-14T11:34:44.611Z,17.32
2018-12-14T11:37:26.703Z,17.35
2018-12-14T11:40:09.722Z,17.62
2018-12-14T11:42:52.046Z,18.30
2018-12-14T11:45:33.968Z,16.97
2018-12-14T11:48:15.749Z,17.25
2018-12-14T11:50:57.543Z,18.98
2018-12-14T11:53:40.137Z,15.95
2018-12-14T11:56:21.511Z,15.70
2018-12-14T11:59:03.627Z,18.37
2018-12-14T12:01:45.525Z,15.90
2018-12-14T12:04:27.863Z,18.00
2018-12-14T12:07:10.080Z,17.20
2018-12-14T12:09:52.089Z,18.05
2018-12-14T12:12:34.315Z,18.95
2018-12-14T12:15:16.198Z,18.05
2018-12-14T12:17:58.497Z,17.65
2018-12-14T12:20:40.266Z,17.17
2018-12-14T12:23:21.580Z,17.57
2018-12-14T12:26:04.317Z,17.40
2018-12-14T12:28:46.534Z,18.07
2018-12-14T12:31:29.091Z,16.85
2018-12-14T12:34:11.239Z,16.25
2018-12-14T12:36:52.998Z,15.90
2018-12-14T12:39:34.809Z,17.27
2018-12-14T12:42:17.375Z,15.43
2018-12-14T12:44:58.559Z,16.30
2018-12-14T12:47:41.086Z,13.15
2018-12-14T12:50:23.782Z,15.53
2018-12-14T12:53:06.028Z,15.43
2018-12-14T12:55:48.157Z,16.67
2018-12-14T12:58:31.148Z,18.05
2018-12-14T13:01:13.238Z,15.55
2018-12-14T13:03:55.499Z,15.60
2018-12-14T13:06:39.475Z,15.80
2018-12-14T13:09:21.205Z,14.75
2018-12-14T13:12:03.088Z,15.68
2018-12-14T13:14:44.308Z,15.08
2018-12-14T13:17:26.180Z,15.35
2018-12-14T13:20:09.101Z,14.98
2018-12-14T13:22:51.517Z,15.70
2018-12-14T13:25:33.292Z,14.45
2018-12-14T13:28:15.340Z,17.27
2018-12-14T13:30:57.057Z,16.35
2018-12-14T13:33:38.773Z,14.60
2018-12-14T13:36:20.774Z,15.55
2018-12-14T13:39:02.075Z,15.40
2018-12-14T13:41:44.957Z,16.57
2018-12-14T13:44:27.140Z,17.92
2018-12-14T13:47:08.758Z,17.32
2018-12-14T13:49:49.988Z,17.05
2018-12-14T13:52:31.733Z,17.60
2018-12-14T13:55:13.246Z,17.62
2018-12-14T13:58:02.134Z,16.95
2018-12-14T14:00:45.718Z,17.87
2018-12-14T14:03:27.815Z,15.85
2018-12-14T14:06:09.448Z,17.27
2018-12-14T14:08:50.658Z,16.73
2018-12-14T14:11:31.988Z,17.93
2018-12-14T14:14:14.012Z,18.12
2018-12-14T14:16:56.589Z,17.43
2018-12-14T14:19:38.853Z,17.82
2018-12-14T14:22:20.551Z,16.90
2018-12-14T14:25:03.661Z,17.90
2018-12-14T14:27:45.199Z,17.43
2018-12-14T14:30:27.086Z,17.20
2018-12-14T14:33:08.332Z,17.12
2018-12-14T14:35:49.974Z,17.35
2018-12-14T14:38:32.229Z,19.27
2018-12-14T14:41:13.857Z,17.32
2018-12-14T14:43:56.012Z,16.87
2018-12-14T14:46:37.695Z,18.27
2018-12-14T14:49:19.415Z,18.30
2018-12-14T14:52:01.363Z,15.13
2018-12-14T14:54:42.530Z,16.23
2018-12-14T14:57:25.939Z,17.52
2018-12-14T15:00:09.296Z,17.30
2018-12-14T15:02:51.579Z,17.25
2018-12-14T15:05:34.176Z,17.35
2018-12-14T15:08:16.069Z,18.40
2018-12-14T15:10:57.712Z,19.10
2018-12-14T15:13:39.420Z,19.55
2018-12-14T15:16:21.587Z,19.60
2018-12-14T15:19:06.598Z,19.32
2018-12-14T15:21:48.983Z,20.60
2018-12-14T15:24:31.043Z,20.88
2018-12-14T15:27:12.827Z,20.88
2018-12-14T15:29:54.108Z,21.27
2018-12-14T15:32:35.505Z,20.65
2018-12-14T15:35:17.417Z,21.55
2018-12-14T15:37:59.109Z,20.82
2018-12-14T15:40:40.782Z,20.85
2018-12-14T15:43:22.503Z,22.35
2018-12-14T15:46:04.786Z,22.27
2018-12-14T15:48:46.481Z,20.92
2018-12-14T15:51:28.189Z,22.98
2018-12-14T15:54:09.839Z,23.47
2018-12-14T15:56:51.442Z,23.40
2018-12-14T15:59:33.654Z,22.65
2018-12-14T16:02:14.953Z,24.57
2018-12-14T16:04:56.476Z,23.50
2018-12-14T16:07:38.290Z,24.95
2018-12-14T16:10:20.359Z,25.00
2018-12-14T16:13:02.426Z,24.75
2018-12-14T16:15:44.902Z,23.35
2018-12-14T16:18:26.695Z,28.75
2018-12-14T16:21:08.097Z,32.67
2018-12-14T16:23:50.532Z,24.25
2018-12-14T16:26:32.792Z,26.33
2018-12-14T16:29:14.421Z,26.15
2018-12-14T16:31:56.543Z,23.25
2018-12-14T16:34:38.748Z,24.67
2018-12-14T16:37:21.152Z,25.27
2018-12-14T16:40:02.953Z,24.43
2018-12-14T16:42:45.807Z,23.90
2018-12-14T16:45:27.113Z,24.87
2018-12-14T16:48:09.275Z,24.90
2018-12-14T16:50:51.035Z,23.70
2018-12-14T16:53:37.256Z,27.58
2018-12-14T16:56:18.586Z,29.07
2018-12-14T16:59:01.303Z,28.05
2018-12-14T17:01:43.741Z,25.68
2018-12-14T17:04:25.303Z,28.57
2018-12-14T17:07:07.571Z,24.55
2018-12-14T17:09:49.694Z,24.57
2018-12-14T17:12:31.373Z,24.65
2018-12-14T17:15:15.214Z,24.63
2018-12-14T17:17:59.122Z,24.27
2018-12-14T17:20:40.640Z,26.37
2018-12-14T17:23:22.167Z,24.90
2018-12-14T17:26:03.477Z,25.53
2018-12-14T17:28:44.757Z,23.43
2018-12-14T17:31:26.839Z,24.20
2018-12-14T17:34:08.657Z,27.37
2018-12-14T17:36:50.608Z,25.70
2018-12-14T17:39:33.932Z,25.03
2018-12-14T17:42:15.833Z,25.10
2018-12-14T17:44:58.034Z,26.10
2018-12-14T17:47:39.316Z,24.70
2018-12-14T17:50:20.882Z,25.87
2018-12-14T17:53:02.204Z,25.80
2018-12-14T17:55:44.254Z,24.40
2018-12-14T17:58:26.031Z,23.92
2018-12-14T18:01:08.281Z,25.23
2018-12-14T18:03:52.562Z,27.00
2018-12-14T18:06:34.895Z,24.63
2018-12-14T18:09:16.296Z,23.55
2018-12-14T18:11:58.375Z,24.17
2018-12-14T18:14:41.345Z,25.32
2018-12-14T18:17:22.807Z,26.93
2018-12-14T18:20:05.313Z,26.87
2018-12-14T18:22:47.559Z,28.87
2018-12-14T18:28:13.642Z,27.67
2018-12-14T18:30:56.412Z,25.82
2018-12-14T18:33:38.286Z,23.32
2018-12-14T18:36:20.208Z,24.83
2018-12-14T18:39:01.893Z,23.83
2018-12-14T18:41:44.465Z,24.45
2018-12-14T18:44:25.897Z,22.10
2018-12-14T18:47:08.228Z,24.98
2018-12-14T18:49:50.545Z,22.30
2018-12-14T18:52:33.254Z,24.47
2018-12-14T18:55:15.229Z,21.73
2018-12-14T18:57:58.143Z,24.72
2018-12-14T19:00:40.379Z,23.22
2018-12-14T19:03:22.144Z,23.22
2018-12-14T19:06:05.345Z,23.20
2018-12-14T19:08:47.129Z,23.50
2018-12-14T19:11:29.186Z,22.53
2018-12-14T19:14:11.497Z,22.17
2018-12-14T19:16:53.051Z,22.77
2018-12-14T19:19:34.978Z,21.90
2018-12-14T19:22:16.984Z,20.97
2018-12-14T19:24:58.347Z,23.00
2018-12-14T19:27:39.687Z,21.35
2018-12-14T19:30:21.343Z,20.57
2018-12-14T19:33:03.098Z,21.07
2018-12-14T19:35:45.149Z,21.82
2018-12-14T19:38:26.715Z,21.17
2018-12-14T19:41:08.079Z,20.77
2018-12-14T19:43:49.724Z,20.02
2018-12-14T19:46:31.143Z,22.53
2018-12-14T19:49:12.375Z,20.88
2018-12-14T19:51:54.508Z,19.90
2018-12-14T19:54:37.014Z,20.95
2018-12-14T19:57:19.017Z,19.25
2018-12-14T20:00:00.835Z,19.92
2018-12-14T20:02:42.936Z,21.37
2018-12-14T20:08:08.678Z,20.37
2018-12-14T20:10:50.587Z,19.27
2018-12-14T20:13:33.124Z,20.03
2018-12-14T20:16:14.752Z,19.30
2018-12-14T20:18:55.988Z,21.93
2018-12-14T20:21:37.490Z,22.98
2018-12-14T20:24:18.696Z,22.93
2018-12-14T20:27:00.320Z,21.12
2018-12-14T20:29:41.901Z,20.65
2018-12-14T20:32:24.099Z,21.05
2018-12-14T20:35:07.313Z,20.55
2018-12-14T20:37:49.492Z,19.33
2018-12-14T20:40:31.022Z,20.27
2018-12-14T20:43:13.411Z,20.60
2018-12-14T20:45:55.355Z,19.98
2018-12-14T20:48:37.211Z,21.23
2018-12-14T20:51:18.667Z,21.02
2018-12-14T20:54:00.843Z,20.12
2018-12-14T20:56:43.002Z,19.85
2018-12-14T20:59:25.736Z,18.63
2018-12-14T21:02:07.946Z,20.80
2018-12-14T21:04:49.372Z,21.60
2018-12-14T21:07:31.566Z,17.80
2018-12-14T21:10:13.460Z,20.00
2018-12-14T21:12:55.729Z,25.05
2018-12-14T21:15:37.808Z,20.37
2018-12-14T21:18:19.432Z,19.17
2018-12-14T21:21:02.073Z,18.70
2018-12-14T21:23:44.179Z,18.63
2018-12-14T21:26:25.485Z,20.23
2018-12-14T21:29:07.659Z,18.97
2018-12-14T21:31:49.554Z,18.57
2018-12-14T21:34:31.019Z,20.13
2018-12-14T21:37:12.778Z,18.67
2018-12-14T21:39:54.626Z,19.60
2018-12-14T21:42:36.391Z,18.93
2018-12-14T21:45:17.950Z,17.90
2018-12-14T21:48:00.701Z,17.87
2018-12-14T21:50:43.276Z,17.00
2018-12-14T21:53:25.226Z,16.55
2018-12-14T21:56:06.821Z,15.37
2018-12-14T21:58:48.587Z,16.02
2018-12-14T22:01:31.364Z,14.97
2018-12-14T22:04:13.574Z,13.93
2018-12-14T22:06:54.733Z,14.83
2018-12-14T22:09:35.950Z,14.53
2018-12-14T22:12:17.726Z,14.93
2018-12-14T22:14:59.562Z,16.33
2018-12-14T22:17:40.766Z,14.68
2018-12-14T22:20:22.048Z,13.10
2018-12-14T22:23:03.672Z,14.73
2018-12-14T22:25:44.965Z,13.13
2018-12-14T22:28:26.212Z,14.40
2018-12-14T22:31:09.503Z,13.53
2018-12-14T22:33:50.923Z,14.20
2018-12-14T22:36:34.220Z,14.63
2018-12-14T22:39:15.452Z,13.13
2018-12-14T22:41:57.790Z,14.83
2018-12-14T22:44:39.400Z,13.30
2018-12-14T22:47:22.166Z,14.25
2018-12-14T22:50:05.397Z,13.98
2018-12-14T22:52:46.618Z,13.48
2018-12-14T22:55:27.840Z,13.87
2018-12-14T22:58:09.922Z,14.55
2018-12-14T23:00:53.441Z,12.18
2018-12-14T23:03:35.134Z,13.93
2018-12-14T23:06:17.137Z,12.03
2018-12-14T23:08:58.513Z,12.73
2018-12-14T23:11:39.851Z,14.30
2018-12-14T23:14:21.130Z,15.40
2018-12-14T23:17:03.806Z,14.93
2018-12-14T23:19:46.182Z,15.72
2018-12-14T23:22:30.614Z,15.80
2018-12-14T23:25:12.373Z,16.47
2018-12-14T23:27:54.324Z,17.85
2018-12-14T23:30:36.406Z,16.40
2018-12-14T23:33:18.740Z,17.30
2018-12-14T23:36:00.231Z,16.75
2018-12-14T23:38:41.514Z,17.03
2018-12-14T23:41:23.474Z,16.07
2018-12-14T23:44:06.022Z,16.77
2018-12-14T23:46:47.287Z,17.13
2018-12-14T23:49:29.304Z,16.48
2018-12-14T23:52:11.163Z,15.78
2018-12-14T23:54:54.104Z,16.27
2018-12-14T23:57:35.665Z,16.33
